sensor_id;sensor_type;location;lat;lon;timestamp;temperature;humidity
11934;DHT22;6026;48.784;9.198;2024-02-23T00:00:50;6.00;99.90
11934;DHT22;6026;48.784;9.198;2024-02-23T00:03:15;6.00;99.90
11934;DHT22;6026;48.784;9.198;2024-02-23T00:05:41;6.00;99.90
11934;DHT22;6026;48.784;9.198;2024-02-23T00:08:07;6.00;99.90
11934;DHT22;6026;48.784;9.198;2024-02-23T00:10:34;6.00;99.90
11934;DHT22;6026;48.784;9.198;2024-02-23T00:12:59;6.00;99.90
11934;DHT22;6026;48.784;9.198;2024-02-23T00:15:26;6.00;99.90
11934;DHT22;6026;48.784;9.198;2024-02-23T00:17:51;6.00;99.90
11934;DHT22;6026;48.784;9.198;2024-02-23T00:20:17;6.00;99.90
11934;DHT22;6026;48.784;9.198;2024-02-23T00:22:42;6.00;99.90
11934;DHT22;6026;48.784;9.198;2024-02-23T00:25:08;5.90;99.90
11934;DHT22;6026;48.784;9.198;2024-02-23T00:27:34;5.90;99.90
11934;DHT22;6026;48.784;9.198;2024-02-23T00:29:59;6.00;99.90
11934;DHT22;6026;48.784;9.198;2024-02-23T00:32:25;5.90;99.90
11934;DHT22;6026;48.784;9.198;2024-02-23T00:34:51;6.00;99.90
11934;DHT22;6026;48.784;9.198;2024-02-23T00:37:16;5.90;99.90
11934;DHT22;6026;48.784;9.198;2024-02-23T00:39:42;5.90;99.90
11934;DHT22;6026;48.784;9.198;2024-02-23T00:42:07;6.00;99.90
11934;DHT22;6026;48.784;9.198;2024-02-23T00:44:33;5.90;99.90
11934;DHT22;6026;48.784;9.198;2024-02-23T00:46:58;6.00;99.90
11934;DHT22;6026;48.784;9.198;2024-02-23T00:49:30;6.00;99.90
11934;DHT22;6026;48.784;9.198;2024-02-23T00:51:56;6.00;99.90
11934;DHT22;6026;48.784;9.198;2024-02-23T00:54:22;6.00;99.90
11934;DHT22;6026;48.784;9.198;2024-02-23T00:56:47;5.90;99.90
11934;DHT22;6026;48.784;9.198;2024-02-23T00:59:13;5.90;99.90
11934;DHT22;6026;48.784;9.198;2024-02-23T01:01:39;5.90;99.90
11934;DHT22;6026;48.784;9.198;2024-02-23T01:04:04;5.90;99.90
11934;DHT22;6026;48.784;9.198;2024-02-23T01:06:30;6.00;99.90
11934;DHT22;6026;48.784;9.198;2024-02-23T01:08:55;6.00;99.90
11934;DHT22;6026;48.784;9.198;2024-02-23T01:11:21;6.00;99.90
11934;DHT22;6026;48.784;9.198;2024-02-23T01:13:46;5.90;99.90
11934;DHT22;6026;48.784;9.198;2024-02-23T01:16:12;5.90;99.90
11934;DHT22;6026;48.784;9.198;2024-02-23T01:18:37;5.90;99.90
11934;DHT22;6026;48.784;9.198;2024-02-23T01:21:03;5.90;99.90
11934;DHT22;6026;48.784;9.198;2024-02-23T01:23:29;5.80;99.90
11934;DHT22;6026;48.784;9.198;2024-02-23T01:25:54;5.80;99.90
11934;DHT22;6026;48.784;9.198;2024-02-23T01:28:20;5.90;99.90
11934;DHT22;6026;48.784;9.198;2024-02-23T01:30:45;5.80;99.90
11934;DHT22;6026;48.784;9.198;2024-02-23T01:33:11;5.80;99.90
11934;DHT22;6026;48.784;9.198;2024-02-23T01:35:36;5.80;99.90
11934;DHT22;6026;48.784;9.198;2024-02-23T01:38:02;5.80;99.90
11934;DHT22;6026;48.784;9.198;2024-02-23T01:40:28;5.80;99.90
11934;DHT22;6026;48.784;9.198;2024-02-23T01:43:04;5.80;99.90
11934;DHT22;6026;48.784;9.198;2024-02-23T01:45:30;5.70;99.90
11934;DHT22;6026;48.784;9.198;2024-02-23T01:47:57;5.70;99.90
11934;DHT22;6026;48.784;9.198;2024-02-23T01:50:23;5.80;99.90
11934;DHT22;6026;48.784;9.198;2024-02-23T01:52:49;5.80;99.90
11934;DHT22;6026;48.784;9.198;2024-02-23T01:55:17;5.80;99.90
11934;DHT22;6026;48.784;9.198;2024-02-23T01:57:45;5.90;99.90
11934;DHT22;6026;48.784;9.198;2024-02-23T02:00:11;5.90;99.90
11934;DHT22;6026;48.784;9.198;2024-02-23T02:02:40;5.90;99.90
11934;DHT22;6026;48.784;9.198;2024-02-23T02:05:06;5.90;99.90
11934;DHT22;6026;48.784;9.198;2024-02-23T02:07:33;5.90;99.90
11934;DHT22;6026;48.784;9.198;2024-02-23T02:09:58;5.90;99.90
11934;DHT22;6026;48.784;9.198;2024-02-23T02:12:28;5.90;99.90
11934;DHT22;6026;48.784;9.198;2024-02-23T02:14:53;5.90;99.90
11934;DHT22;6026;48.784;9.198;2024-02-23T02:17:21;5.90;99.90
11934;DHT22;6026;48.784;9.198;2024-02-23T02:19:50;5.90;99.90
11934;DHT22;6026;48.784;9.198;2024-02-23T02:22:16;5.90;99.90
11934;DHT22;6026;48.784;9.198;2024-02-23T02:24:41;5.90;99.90
11934;DHT22;6026;48.784;9.198;2024-02-23T02:27:09;6.00;99.90
11934;DHT22;6026;48.784;9.198;2024-02-23T02:29:35;5.90;99.90
11934;DHT22;6026;48.784;9.198;2024-02-23T02:32:01;5.90;99.90
11934;DHT22;6026;48.784;9.198;2024-02-23T02:34:28;5.90;99.90
11934;DHT22;6026;48.784;9.198;2024-02-23T02:36:54;5.90;99.90
11934;DHT22;6026;48.784;9.198;2024-02-23T02:39:20;5.80;99.90
11934;DHT22;6026;48.784;9.198;2024-02-23T02:41:47;5.80;99.90
11934;DHT22;6026;48.784;9.198;2024-02-23T02:44:13;5.80;99.90
11934;DHT22;6026;48.784;9.198;2024-02-23T02:46:39;5.80;99.90
11934;DHT22;6026;48.784;9.198;2024-02-23T02:49:05;5.80;99.90
11934;DHT22;6026;48.784;9.198;2024-02-23T02:51:31;5.80;99.90
11934;DHT22;6026;48.784;9.198;2024-02-23T02:53:56;5.80;99.90
11934;DHT22;6026;48.784;9.198;2024-02-23T02:56:22;5.90;99.90
11934;DHT22;6026;48.784;9.198;2024-02-23T02:58:48;5.80;99.90
11934;DHT22;6026;48.784;9.198;2024-02-23T03:01:13;5.80;99.90
11934;DHT22;6026;48.784;9.198;2024-02-23T03:03:39;5.80;99.90
11934;DHT22;6026;48.784;9.198;2024-02-23T03:06:04;5.80;99.90
11934;DHT22;6026;48.784;9.198;2024-02-23T03:08:31;5.80;99.90
11934;DHT22;6026;48.784;9.198;2024-02-23T03:10:56;5.80;99.90
11934;DHT22;6026;48.784;9.198;2024-02-23T03:13:22;5.80;99.90
11934;DHT22;6026;48.784;9.198;2024-02-23T03:15:48;5.80;99.90
11934;DHT22;6026;48.784;9.198;2024-02-23T03:18:13;5.90;99.90
11934;DHT22;6026;48.784;9.198;2024-02-23T03:20:41;5.80;99.90
11934;DHT22;6026;48.784;9.198;2024-02-23T03:23:07;5.70;99.90
11934;DHT22;6026;48.784;9.198;2024-02-23T03:25:32;5.80;99.90
11934;DHT22;6026;48.784;9.198;2024-02-23T03:27:59;5.90;99.90
11934;DHT22;6026;48.784;9.198;2024-02-23T03:30:24;5.90;99.90
11934;DHT22;6026;48.784;9.198;2024-02-23T03:32:50;5.80;99.90
11934;DHT22;6026;48.784;9.198;2024-02-23T03:35:15;5.90;99.90
11934;DHT22;6026;48.784;9.198;2024-02-23T03:37:41;5.80;99.90
11934;DHT22;6026;48.784;9.198;2024-02-23T03:40:07;5.70;99.90
11934;DHT22;6026;48.784;9.198;2024-02-23T03:42:33;5.70;99.90
11934;DHT22;6026;48.784;9.198;2024-02-23T03:44:58;5.80;99.90
11934;DHT22;6026;48.784;9.198;2024-02-23T03:47:24;5.70;99.90
11934;DHT22;6026;48.784;9.198;2024-02-23T03:49:49;5.70;99.90
11934;DHT22;6026;48.784;9.198;2024-02-23T03:52:15;5.60;99.90
11934;DHT22;6026;48.784;9.198;2024-02-23T03:54:41;5.60;99.90
11934;DHT22;6026;48.784;9.198;2024-02-23T03:57:06;5.60;99.90
11934;DHT22;6026;48.784;9.198;2024-02-23T03:59:32;5.60;99.90
11934;DHT22;6026;48.784;9.198;2024-02-23T04:01:57;5.60;99.90
11934;DHT22;6026;48.784;9.198;2024-02-23T04:04:23;5.60;99.90
11934;DHT22;6026;48.784;9.198;2024-02-23T04:06:48;5.60;99.90
11934;DHT22;6026;48.784;9.198;2024-02-23T04:09:14;5.70;99.90
11934;DHT22;6026;48.784;9.198;2024-02-23T04:11:40;5.60;99.90
11934;DHT22;6026;48.784;9.198;2024-02-23T04:14:05;5.60;99.90
11934;DHT22;6026;48.784;9.198;2024-02-23T04:16:31;5.60;99.90
11934;DHT22;6026;48.784;9.198;2024-02-23T04:18:57;5.60;99.90
11934;DHT22;6026;48.784;9.198;2024-02-23T04:21:23;5.50;99.90
11934;DHT22;6026;48.784;9.198;2024-02-23T04:23:48;5.50;99.90
11934;DHT22;6026;48.784;9.198;2024-02-23T04:26:14;5.50;99.90
11934;DHT22;6026;48.784;9.198;2024-02-23T04:28:40;5.50;99.90
11934;DHT22;6026;48.784;9.198;2024-02-23T04:31:07;5.50;99.90
11934;DHT22;6026;48.784;9.198;2024-02-23T04:33:34;5.40;99.90
11934;DHT22;6026;48.784;9.198;2024-02-23T04:36:00;5.40;99.90
11934;DHT22;6026;48.784;9.198;2024-02-23T04:38:26;5.40;99.90
11934;DHT22;6026;48.784;9.198;2024-02-23T04:40:52;5.50;99.90
11934;DHT22;6026;48.784;9.198;2024-02-23T04:43:17;5.40;99.90
11934;DHT22;6026;48.784;9.198;2024-02-23T04:45:43;5.40;99.90
11934;DHT22;6026;48.784;9.198;2024-02-23T04:48:08;5.40;99.90
11934;DHT22;6026;48.784;9.198;2024-02-23T04:50:34;5.40;99.90
11934;DHT22;6026;48.784;9.198;2024-02-23T04:52:59;5.30;99.90
11934;DHT22;6026;48.784;9.198;2024-02-23T04:55:25;5.30;99.90
11934;DHT22;6026;48.784;9.198;2024-02-23T04:57:50;5.30;99.90
11934;DHT22;6026;48.784;9.198;2024-02-23T05:00:16;5.30;99.90
11934;DHT22;6026;48.784;9.198;2024-02-23T05:02:42;5.20;99.90
11934;DHT22;6026;48.784;9.198;2024-02-23T05:05:08;5.20;99.90
11934;DHT22;6026;48.784;9.198;2024-02-23T05:07:34;5.10;99.90
11934;DHT22;6026;48.784;9.198;2024-02-23T05:10:00;5.20;99.90
11934;DHT22;6026;48.784;9.198;2024-02-23T05:12:25;5.20;99.90
11934;DHT22;6026;48.784;9.198;2024-02-23T05:14:51;5.20;99.90
11934;DHT22;6026;48.784;9.198;2024-02-23T05:17:17;5.20;99.90
11934;DHT22;6026;48.784;9.198;2024-02-23T05:19:43;5.10;99.90
11934;DHT22;6026;48.784;9.198;2024-02-23T05:22:08;5.10;99.90
11934;DHT22;6026;48.784;9.198;2024-02-23T05:24:34;5.10;99.90
11934;DHT22;6026;48.784;9.198;2024-02-23T05:26:59;5.00;99.90
11934;DHT22;6026;48.784;9.198;2024-02-23T05:29:28;5.00;99.90
11934;DHT22;6026;48.784;9.198;2024-02-23T05:31:53;5.00;99.90
11934;DHT22;6026;48.784;9.198;2024-02-23T05:34:19;5.00;99.90
11934;DHT22;6026;48.784;9.198;2024-02-23T05:36:46;5.00;99.90
11934;DHT22;6026;48.784;9.198;2024-02-23T05:39:12;4.90;99.90
11934;DHT22;6026;48.784;9.198;2024-02-23T05:41:38;4.90;99.90
11934;DHT22;6026;48.784;9.198;2024-02-23T05:44:04;4.90;99.90
11934;DHT22;6026;48.784;9.198;2024-02-23T05:46:32;4.90;99.90
11934;DHT22;6026;48.784;9.198;2024-02-23T05:48:58;4.90;99.90
11934;DHT22;6026;48.784;9.198;2024-02-23T05:51:24;4.80;99.90
11934;DHT22;6026;48.784;9.198;2024-02-23T05:53:49;4.80;99.90
11934;DHT22;6026;48.784;9.198;2024-02-23T05:56:15;4.90;99.90
11934;DHT22;6026;48.784;9.198;2024-02-23T05:58:41;4.80;99.90
11934;DHT22;6026;48.784;9.198;2024-02-23T06:01:06;4.80;99.90
11934;DHT22;6026;48.784;9.198;2024-02-23T06:03:32;4.80;99.90
11934;DHT22;6026;48.784;9.198;2024-02-23T06:05:58;4.70;99.90
11934;DHT22;6026;48.784;9.198;2024-02-23T06:08:23;4.70;99.90
11934;DHT22;6026;48.784;9.198;2024-02-23T06:10:49;4.70;99.90
11934;DHT22;6026;48.784;9.198;2024-02-23T06:13:15;4.70;99.90
11934;DHT22;6026;48.784;9.198;2024-02-23T06:15:40;4.70;99.90
11934;DHT22;6026;48.784;9.198;2024-02-23T06:18:06;4.60;99.90
11934;DHT22;6026;48.784;9.198;2024-02-23T06:20:31;4.60;99.90
11934;DHT22;6026;48.784;9.198;2024-02-23T06:22:57;4.50;99.90
11934;DHT22;6026;48.784;9.198;2024-02-23T06:25:23;4.50;99.90
11934;DHT22;6026;48.784;9.198;2024-02-23T06:27:48;4.50;99.90
11934;DHT22;6026;48.784;9.198;2024-02-23T06:30:14;4.40;99.90
11934;DHT22;6026;48.784;9.198;2024-02-23T06:32:39;4.40;99.90
11934;DHT22;6026;48.784;9.198;2024-02-23T06:35:05;4.40;99.90
11934;DHT22;6026;48.784;9.198;2024-02-23T06:37:32;4.30;99.90
11934;DHT22;6026;48.784;9.198;2024-02-23T06:39:58;4.30;99.90
11934;DHT22;6026;48.784;9.198;2024-02-23T06:42:23;4.30;99.90
11934;DHT22;6026;48.784;9.198;2024-02-23T06:44:49;4.40;99.90
11934;DHT22;6026;48.784;9.198;2024-02-23T06:47:15;4.40;99.90
11934;DHT22;6026;48.784;9.198;2024-02-23T06:49:44;4.40;99.90
11934;DHT22;6026;48.784;9.198;2024-02-23T06:52:10;4.50;99.90
11934;DHT22;6026;48.784;9.198;2024-02-23T06:54:36;4.50;99.90
11934;DHT22;6026;48.784;9.198;2024-02-23T06:57:02;4.60;99.90
11934;DHT22;6026;48.784;9.198;2024-02-23T06:59:28;4.60;99.90
11934;DHT22;6026;48.784;9.198;2024-02-23T07:01:54;4.70;99.90
11934;DHT22;6026;48.784;9.198;2024-02-23T07:04:20;4.70;99.90
11934;DHT22;6026;48.784;9.198;2024-02-23T07:06:46;4.70;99.90
11934;DHT22;6026;48.784;9.198;2024-02-23T07:09:12;4.70;99.90
11934;DHT22;6026;48.784;9.198;2024-02-23T07:11:38;4.80;99.90
11934;DHT22;6026;48.784;9.198;2024-02-23T07:14:04;4.90;99.90
11934;DHT22;6026;48.784;9.198;2024-02-23T07:16:30;4.90;99.90
11934;DHT22;6026;48.784;9.198;2024-02-23T07:18:56;4.90;99.90
11934;DHT22;6026;48.784;9.198;2024-02-23T07:21:22;4.90;99.90
11934;DHT22;6026;48.784;9.198;2024-02-23T07:23:47;4.90;99.90
11934;DHT22;6026;48.784;9.198;2024-02-23T07:26:13;4.90;99.90
11934;DHT22;6026;48.784;9.198;2024-02-23T07:28:38;4.90;99.90
11934;DHT22;6026;48.784;9.198;2024-02-23T07:31:04;4.90;99.90
11934;DHT22;6026;48.784;9.198;2024-02-23T07:33:29;4.90;99.90
11934;DHT22;6026;48.784;9.198;2024-02-23T07:35:55;5.00;99.90
11934;DHT22;6026;48.784;9.198;2024-02-23T07:38:20;5.00;99.90
11934;DHT22;6026;48.784;9.198;2024-02-23T07:40:46;5.00;99.90
11934;DHT22;6026;48.784;9.198;2024-02-23T07:43:12;5.10;99.90
11934;DHT22;6026;48.784;9.198;2024-02-23T07:45:38;5.10;99.90
11934;DHT22;6026;48.784;9.198;2024-02-23T07:48:04;5.20;99.90
11934;DHT22;6026;48.784;9.198;2024-02-23T07:50:30;5.30;99.90
11934;DHT22;6026;48.784;9.198;2024-02-23T07:52:55;5.50;99.90
11934;DHT22;6026;48.784;9.198;2024-02-23T07:55:21;5.60;99.90
11934;DHT22;6026;48.784;9.198;2024-02-23T07:57:47;5.60;99.90
11934;DHT22;6026;48.784;9.198;2024-02-23T08:00:13;5.70;99.90
11934;DHT22;6026;48.784;9.198;2024-02-23T08:02:39;5.70;99.90
11934;DHT22;6026;48.784;9.198;2024-02-23T08:05:07;5.70;99.90
11934;DHT22;6026;48.784;9.198;2024-02-23T08:07:32;5.70;99.90
11934;DHT22;6026;48.784;9.198;2024-02-23T08:09:58;5.70;99.90
11934;DHT22;6026;48.784;9.198;2024-02-23T08:12:24;5.70;99.90
11934;DHT22;6026;48.784;9.198;2024-02-23T08:14:49;5.80;99.90
11934;DHT22;6026;48.784;9.198;2024-02-23T08:17:18;5.80;99.90
11934;DHT22;6026;48.784;9.198;2024-02-23T08:19:44;5.90;99.90
11934;DHT22;6026;48.784;9.198;2024-02-23T08:22:09;5.90;99.90
11934;DHT22;6026;48.784;9.198;2024-02-23T08:24:35;5.90;99.90
11934;DHT22;6026;48.784;9.198;2024-02-23T08:27:00;5.90;99.90
11934;DHT22;6026;48.784;9.198;2024-02-23T08:29:27;6.00;99.90
11934;DHT22;6026;48.784;9.198;2024-02-23T08:31:52;6.10;99.90
11934;DHT22;6026;48.784;9.198;2024-02-23T08:34:18;6.30;99.90
11934;DHT22;6026;48.784;9.198;2024-02-23T08:36:43;6.30;99.90
11934;DHT22;6026;48.784;9.198;2024-02-23T08:39:09;6.30;99.90
11934;DHT22;6026;48.784;9.198;2024-02-23T08:41:35;6.20;99.90
11934;DHT22;6026;48.784;9.198;2024-02-23T08:44:01;6.20;99.90
11934;DHT22;6026;48.784;9.198;2024-02-23T08:46:26;6.20;99.90
11934;DHT22;6026;48.784;9.198;2024-02-23T08:48:52;6.30;99.90
11934;DHT22;6026;48.784;9.198;2024-02-23T08:51:17;6.20;99.90
11934;DHT22;6026;48.784;9.198;2024-02-23T08:53:43;6.10;99.90
11934;DHT22;6026;48.784;9.198;2024-02-23T08:56:08;6.40;99.90
11934;DHT22;6026;48.784;9.198;2024-02-23T08:58:35;6.20;99.90
11934;DHT22;6026;48.784;9.198;2024-02-23T09:01:00;6.20;99.90
11934;DHT22;6026;48.784;9.198;2024-02-23T09:03:26;6.30;99.90
11934;DHT22;6026;48.784;9.198;2024-02-23T09:05:51;6.40;99.90
11934;DHT22;6026;48.784;9.198;2024-02-23T09:08:17;6.40;99.90
11934;DHT22;6026;48.784;9.198;2024-02-23T09:10:43;6.40;99.90
11934;DHT22;6026;48.784;9.198;2024-02-23T09:13:08;6.30;99.90
11934;DHT22;6026;48.784;9.198;2024-02-23T09:15:34;6.20;99.90
11934;DHT22;6026;48.784;9.198;2024-02-23T09:17:59;6.30;99.90
11934;DHT22;6026;48.784;9.198;2024-02-23T09:20:25;6.30;99.90
11934;DHT22;6026;48.784;9.198;2024-02-23T09:22:51;6.40;99.90
11934;DHT22;6026;48.784;9.198;2024-02-23T09:25:18;6.50;99.90
11934;DHT22;6026;48.784;9.198;2024-02-23T09:27:43;6.50;99.90
11934;DHT22;6026;48.784;9.198;2024-02-23T09:30:14;6.50;99.90
11934;DHT22;6026;48.784;9.198;2024-02-23T09:32:39;6.50;99.90
11934;DHT22;6026;48.784;9.198;2024-02-23T09:35:05;6.50;99.90
11934;DHT22;6026;48.784;9.198;2024-02-23T09:37:32;6.40;99.90
11934;DHT22;6026;48.784;9.198;2024-02-23T09:39:58;6.60;99.90
11934;DHT22;6026;48.784;9.198;2024-02-23T09:42:23;6.70;99.90
11934;DHT22;6026;48.784;9.198;2024-02-23T09:44:58;6.70;99.90
11934;DHT22;6026;48.784;9.198;2024-02-23T09:47:28;6.70;99.90
11934;DHT22;6026;48.784;9.198;2024-02-23T09:49:54;6.70;99.90
11934;DHT22;6026;48.784;9.198;2024-02-23T09:52:21;7.00;99.90
11934;DHT22;6026;48.784;9.198;2024-02-23T09:54:48;7.40;99.90
11934;DHT22;6026;48.784;9.198;2024-02-23T09:57:16;7.20;99.90
11934;DHT22;6026;48.784;9.198;2024-02-23T09:59:42;7.40;99.90
11934;DHT22;6026;48.784;9.198;2024-02-23T10:02:09;7.80;99.90
11934;DHT22;6026;48.784;9.198;2024-02-23T10:04:36;8.10;99.90
11934;DHT22;6026;48.784;9.198;2024-02-23T10:07:05;8.50;99.90
11934;DHT22;6026;48.784;9.198;2024-02-23T10:09:30;8.30;99.90
11934;DHT22;6026;48.784;9.198;2024-02-23T10:11:56;8.40;99.90
11934;DHT22;6026;48.784;9.198;2024-02-23T10:14:22;8.40;99.90
11934;DHT22;6026;48.784;9.198;2024-02-23T10:16:48;8.70;99.90
11934;DHT22;6026;48.784;9.198;2024-02-23T10:19:19;8.80;99.90
11934;DHT22;6026;48.784;9.198;2024-02-23T10:21:45;8.70;99.90
11934;DHT22;6026;48.784;9.198;2024-02-23T10:24:11;8.50;99.90
11934;DHT22;6026;48.784;9.198;2024-02-23T10:26:36;8.40;99.90
11934;DHT22;6026;48.784;9.198;2024-02-23T10:29:02;8.00;99.90
11934;DHT22;6026;48.784;9.198;2024-02-23T10:31:31;7.90;99.90
11934;DHT22;6026;48.784;9.198;2024-02-23T10:33:59;8.10;99.90
11934;DHT22;6026;48.784;9.198;2024-02-23T10:36:28;7.90;99.90
11934;DHT22;6026;48.784;9.198;2024-02-23T10:38:56;7.60;99.90
11934;DHT22;6026;48.784;9.198;2024-02-23T10:41:25;7.30;99.90
11934;DHT22;6026;48.784;9.198;2024-02-23T10:43:51;7.60;99.90
11934;DHT22;6026;48.784;9.198;2024-02-23T10:46:18;7.70;99.90
11934;DHT22;6026;48.784;9.198;2024-02-23T10:48:45;8.10;99.90
11934;DHT22;6026;48.784;9.198;2024-02-23T10:51:12;8.40;99.90
11934;DHT22;6026;48.784;9.198;2024-02-23T10:53:39;8.30;99.90
11934;DHT22;6026;48.784;9.198;2024-02-23T10:56:06;8.30;99.90
11934;DHT22;6026;48.784;9.198;2024-02-23T10:58:32;8.40;99.90
11934;DHT22;6026;48.784;9.198;2024-02-23T11:01:04;7.80;99.90
11934;DHT22;6026;48.784;9.198;2024-02-23T11:03:32;7.90;99.90
11934;DHT22;6026;48.784;9.198;2024-02-23T11:05:59;8.20;99.90
11934;DHT22;6026;48.784;9.198;2024-02-23T11:08:28;8.20;99.90
11934;DHT22;6026;48.784;9.198;2024-02-23T11:10:54;8.30;99.90
11934;DHT22;6026;48.784;9.198;2024-02-23T11:13:36;8.30;99.90
11934;DHT22;6026;48.784;9.198;2024-02-23T11:16:03;8.00;99.90
11934;DHT22;6026;48.784;9.198;2024-02-23T11:18:29;8.10;99.90
11934;DHT22;6026;48.784;9.198;2024-02-23T11:20:58;8.30;99.90
11934;DHT22;6026;48.784;9.198;2024-02-23T11:23:24;8.20;99.90
11934;DHT22;6026;48.784;9.198;2024-02-23T11:26:19;8.00;99.90
11934;DHT22;6026;48.784;9.198;2024-02-23T11:28:49;8.10;99.90
11934;DHT22;6026;48.784;9.198;2024-02-23T11:31:18;8.30;99.90
11934;DHT22;6026;48.784;9.198;2024-02-23T11:33:48;8.40;99.90
11934;DHT22;6026;48.784;9.198;2024-02-23T11:38:54;8.50;99.90
11934;DHT22;6026;48.784;9.198;2024-02-23T11:41:22;8.30;99.90
11934;DHT22;6026;48.784;9.198;2024-02-23T11:43:52;8.40;99.90
11934;DHT22;6026;48.784;9.198;2024-02-23T11:46:18;8.30;99.90
11934;DHT22;6026;48.784;9.198;2024-02-23T11:48:44;8.20;99.90
11934;DHT22;6026;48.784;9.198;2024-02-23T11:51:15;8.20;99.90
11934;DHT22;6026;48.784;9.198;2024-02-23T11:53:42;8.40;99.90
11934;DHT22;6026;48.784;9.198;2024-02-23T11:56:07;8.30;99.90
11934;DHT22;6026;48.784;9.198;2024-02-23T11:58:33;8.40;99.90
11934;DHT22;6026;48.784;9.198;2024-02-23T12:01:00;8.30;99.90
11934;DHT22;6026;48.784;9.198;2024-02-23T12:03:28;8.30;99.90
11934;DHT22;6026;48.784;9.198;2024-02-23T12:05:56;8.30;99.90
11934;DHT22;6026;48.784;9.198;2024-02-23T12:08:23;8.30;99.90
11934;DHT22;6026;48.784;9.198;2024-02-23T12:10:49;8.40;99.90
11934;DHT22;6026;48.784;9.198;2024-02-23T12:13:14;8.60;99.90
11934;DHT22;6026;48.784;9.198;2024-02-23T12:15:40;8.60;99.90
11934;DHT22;6026;48.784;9.198;2024-02-23T12:18:06;8.70;99.90
11934;DHT22;6026;48.784;9.198;2024-02-23T12:20:35;8.70;99.90
11934;DHT22;6026;48.784;9.198;2024-02-23T12:23:01;8.40;99.90
11934;DHT22;6026;48.784;9.198;2024-02-23T12:25:27;8.20;99.90
11934;DHT22;6026;48.784;9.198;2024-02-23T12:27:56;8.30;99.90
11934;DHT22;6026;48.784;9.198;2024-02-23T12:30:28;8.40;99.90
11934;DHT22;6026;48.784;9.198;2024-02-23T12:33:06;8.40;99.90
11934;DHT22;6026;48.784;9.198;2024-02-23T12:35:34;8.60;99.90
11934;DHT22;6026;48.784;9.198;2024-02-23T12:38:00;8.50;99.90
11934;DHT22;6026;48.784;9.198;2024-02-23T12:40:26;8.40;99.90
11934;DHT22;6026;48.784;9.198;2024-02-23T12:42:51;8.30;99.90
11934;DHT22;6026;48.784;9.198;2024-02-23T12:45:17;8.30;99.90
11934;DHT22;6026;48.784;9.198;2024-02-23T12:47:43;8.10;99.90
11934;DHT22;6026;48.784;9.198;2024-02-23T12:50:08;8.30;99.90
11934;DHT22;6026;48.784;9.198;2024-02-23T12:52:35;8.50;99.90
11934;DHT22;6026;48.784;9.198;2024-02-23T12:55:01;8.50;99.90
11934;DHT22;6026;48.784;9.198;2024-02-23T12:57:26;8.50;99.90
11934;DHT22;6026;48.784;9.198;2024-02-23T12:59:52;8.40;99.90
11934;DHT22;6026;48.784;9.198;2024-02-23T13:02:17;8.20;99.90
11934;DHT22;6026;48.784;9.198;2024-02-23T13:04:43;8.20;99.90
11934;DHT22;6026;48.784;9.198;2024-02-23T13:07:14;8.30;99.90
11934;DHT22;6026;48.784;9.198;2024-02-23T13:09:40;8.20;99.90
11934;DHT22;6026;48.784;9.198;2024-02-23T13:12:06;8.10;99.90
11934;DHT22;6026;48.784;9.198;2024-02-23T13:14:32;8.40;99.90
11934;DHT22;6026;48.784;9.198;2024-02-23T13:16:57;8.50;99.90
11934;DHT22;6026;48.784;9.198;2024-02-23T13:19:23;8.60;99.90
11934;DHT22;6026;48.784;9.198;2024-02-23T13:21:48;8.60;99.90
11934;DHT22;6026;48.784;9.198;2024-02-23T13:24:15;8.40;99.90
11934;DHT22;6026;48.784;9.198;2024-02-23T13:26:41;8.40;99.90
11934;DHT22;6026;48.784;9.198;2024-02-23T13:29:07;8.50;99.90
11934;DHT22;6026;48.784;9.198;2024-02-23T13:31:32;8.50;99.90
11934;DHT22;6026;48.784;9.198;2024-02-23T13:33:58;8.50;99.90
11934;DHT22;6026;48.784;9.198;2024-02-23T13:36:23;8.60;99.90
11934;DHT22;6026;48.784;9.198;2024-02-23T13:38:49;8.70;99.90
11934;DHT22;6026;48.784;9.198;2024-02-23T13:41:16;8.70;99.90
11934;DHT22;6026;48.784;9.198;2024-02-23T13:43:42;8.80;99.90
11934;DHT22;6026;48.784;9.198;2024-02-23T13:46:08;8.80;99.90
11934;DHT22;6026;48.784;9.198;2024-02-23T13:48:33;8.70;99.90
11934;DHT22;6026;48.784;9.198;2024-02-23T13:50:59;8.80;99.90
11934;DHT22;6026;48.784;9.198;2024-02-23T13:53:31;8.70;99.90
11934;DHT22;6026;48.784;9.198;2024-02-23T13:55:58;8.60;99.90
11934;DHT22;6026;48.784;9.198;2024-02-23T13:58:24;8.70;99.90
11934;DHT22;6026;48.784;9.198;2024-02-23T14:00:49;8.60;99.90
11934;DHT22;6026;48.784;9.198;2024-02-23T14:03:18;8.70;99.90
11934;DHT22;6026;48.784;9.198;2024-02-23T14:05:44;8.90;99.90
11934;DHT22;6026;48.784;9.198;2024-02-23T14:08:11;8.60;99.90
11934;DHT22;6026;48.784;9.198;2024-02-23T14:10:37;8.70;99.90
11934;DHT22;6026;48.784;9.198;2024-02-23T14:13:02;8.50;99.90
11934;DHT22;6026;48.784;9.198;2024-02-23T14:15:28;8.50;99.90
11934;DHT22;6026;48.784;9.198;2024-02-23T14:17:53;8.60;99.90
11934;DHT22;6026;48.784;9.198;2024-02-23T14:20:19;8.60;99.90
11934;DHT22;6026;48.784;9.198;2024-02-23T14:22:44;8.50;99.90
11934;DHT22;6026;48.784;9.198;2024-02-23T14:25:10;8.50;99.90
11934;DHT22;6026;48.784;9.198;2024-02-23T14:27:36;8.60;99.90
11934;DHT22;6026;48.784;9.198;2024-02-23T14:30:01;8.70;99.90
11934;DHT22;6026;48.784;9.198;2024-02-23T14:32:27;8.80;99.90
11934;DHT22;6026;48.784;9.198;2024-02-23T14:34:53;8.90;99.90
11934;DHT22;6026;48.784;9.198;2024-02-23T14:37:18;8.80;99.90
11934;DHT22;6026;48.784;9.198;2024-02-23T14:39:44;8.70;99.90
11934;DHT22;6026;48.784;9.198;2024-02-23T14:42:09;8.60;99.90
11934;DHT22;6026;48.784;9.198;2024-02-23T14:44:35;8.60;99.90
11934;DHT22;6026;48.784;9.198;2024-02-23T14:47:02;8.70;99.90
11934;DHT22;6026;48.784;9.198;2024-02-23T14:49:27;9.00;99.90
11934;DHT22;6026;48.784;9.198;2024-02-23T14:51:53;9.10;99.90
11934;DHT22;6026;48.784;9.198;2024-02-23T14:54:18;9.10;99.90
11934;DHT22;6026;48.784;9.198;2024-02-23T14:56:44;9.00;99.90
11934;DHT22;6026;48.784;9.198;2024-02-23T14:59:10;8.70;99.90
11934;DHT22;6026;48.784;9.198;2024-02-23T15:01:39;8.80;99.90
11934;DHT22;6026;48.784;9.198;2024-02-23T15:04:07;8.80;99.90
11934;DHT22;6026;48.784;9.198;2024-02-23T15:06:33;8.80;99.90
11934;DHT22;6026;48.784;9.198;2024-02-23T15:09:00;8.80;99.90
11934;DHT22;6026;48.784;9.198;2024-02-23T15:11:26;8.80;99.90
11934;DHT22;6026;48.784;9.198;2024-02-23T15:13:51;8.70;99.90
11934;DHT22;6026;48.784;9.198;2024-02-23T15:16:22;8.60;99.90
11934;DHT22;6026;48.784;9.198;2024-02-23T15:18:49;8.50;99.90
11934;DHT22;6026;48.784;9.198;2024-02-23T15:21:14;8.60;99.90
11934;DHT22;6026;48.784;9.198;2024-02-23T15:23:40;8.60;99.90
11934;DHT22;6026;48.784;9.198;2024-02-23T15:26:08;8.50;99.90
11934;DHT22;6026;48.784;9.198;2024-02-23T15:28:34;8.50;99.90
11934;DHT22;6026;48.784;9.198;2024-02-23T15:31:00;8.40;99.90
11934;DHT22;6026;48.784;9.198;2024-02-23T15:33:28;8.50;99.90
11934;DHT22;6026;48.784;9.198;2024-02-23T15:35:54;8.50;99.90
11934;DHT22;6026;48.784;9.198;2024-02-23T15:38:20;8.40;99.90
11934;DHT22;6026;48.784;9.198;2024-02-23T15:40:45;8.50;99.90
11934;DHT22;6026;48.784;9.198;2024-02-23T15:43:11;8.50;99.90
11934;DHT22;6026;48.784;9.198;2024-02-23T15:45:36;8.50;99.90
11934;DHT22;6026;48.784;9.198;2024-02-23T15:48:02;8.50;99.90
11934;DHT22;6026;48.784;9.198;2024-02-23T15:50:27;8.50;99.90
11934;DHT22;6026;48.784;9.198;2024-02-23T15:52:54;8.50;99.90
11934;DHT22;6026;48.784;9.198;2024-02-23T15:55:20;8.40;99.90
11934;DHT22;6026;48.784;9.198;2024-02-23T15:57:46;8.30;99.90